createdAt,value
2022-11-25T00:01:34.543Z,0.00
2022-11-25T00:04:02.867Z,0.00
2022-11-25T00:06:35.249Z,0.00
2022-11-25T00:09:08.242Z,0.00
2022-11-25T00:11:40.472Z,0.00
2022-11-25T00:14:12.896Z,0.00
2022-11-25T00:16:43.769Z,0.00
2022-11-25T00:19:15.819Z,0.00
2022-11-25T00:21:43.241Z,0.00
2022-11-25T00:24:17.381Z,0.00
2022-11-25T00:26:44.941Z,0.00
2022-11-25T00:29:13.900Z,0.00
2022-11-25T00:31:41.792Z,0.10
2022-11-25T00:34:14.387Z,0.10
2022-11-25T00:36:41.720Z,0.10
2022-11-25T00:39:14.475Z,0.10
2022-11-25T00:42:00.921Z,0.20
2022-11-25T00:44:41.494Z,0.20
2022-11-25T00:47:12.477Z,0.20
2022-11-25T00:49:42.178Z,0.20
2022-11-25T00:52:13.023Z,0.30
2022-11-25T00:54:40.687Z,0.30
2022-11-25T00:57:07.920Z,0.30
2022-11-25T00:59:35.386Z,0.30
2022-11-25T01:02:02.828Z,0.30
2022-11-25T01:04:30.439Z,0.30
2022-11-25T01:06:59.992Z,0.40
2022-11-25T01:09:28.068Z,0.40
2022-11-25T01:11:55.517Z,0.40
2022-11-25T01:14:24.305Z,0.40
2022-11-25T01:16:51.956Z,0.30
2022-11-25T01:19:20.414Z,0.30
2022-11-25T01:21:47.626Z,0.40
2022-11-25T01:24:16.341Z,0.40
2022-11-25T01:26:44.746Z,0.40
2022-11-25T01:29:17.769Z,0.40
2022-11-25T01:31:46.182Z,0.40
2022-11-25T01:34:15.187Z,0.40
2022-11-25T01:36:42.437Z,0.40
2022-11-25T01:39:28.685Z,0.40
2022-11-25T01:42:00.055Z,0.40
2022-11-25T01:44:30.265Z,0.40
2022-11-25T01:47:12.531Z,0.40
2022-11-25T01:49:51.356Z,0.40
2022-11-25T01:52:24.908Z,0.40
2022-11-25T01:55:02.155Z,0.40
2022-11-25T01:57:39.294Z,0.40
2022-11-25T02:00:08.725Z,0.40
2022-11-25T02:02:46.356Z,0.40
2022-11-25T02:05:19.551Z,0.40
2022-11-25T02:07:51.313Z,0.40
2022-11-25T02:10:27.046Z,0.40
2022-11-25T02:12:54.480Z,0.30
2022-11-25T02:15:23.076Z,0.30
2022-11-25T02:17:50.776Z,0.30
2022-11-25T02:20:23.467Z,0.30
2022-11-25T02:23:05.314Z,0.30
2022-11-25T02:25:39.719Z,0.30
2022-11-25T02:28:27.604Z,0.20
2022-11-25T02:30:55.442Z,0.20
2022-11-25T02:33:24.696Z,0.20
2022-11-25T02:36:00.558Z,0.20
2022-11-25T02:38:38.400Z,0.30
2022-11-25T02:41:13.581Z,0.30
2022-11-25T02:43:41.964Z,0.30
2022-11-25T02:46:22.289Z,0.30
2022-11-25T02:51:46.729Z,0.20
2022-11-25T02:54:15.865Z,0.30
2022-11-25T02:56:43.690Z,0.30
2022-11-25T02:59:11.651Z,0.30
2022-11-25T03:01:39.960Z,0.30
2022-11-25T03:04:09.913Z,0.30
2022-11-25T03:06:37.467Z,0.30
2022-11-25T03:09:04.850Z,0.40
2022-11-25T03:11:51.181Z,0.40
2022-11-25T03:14:20.408Z,0.40
2022-11-25T03:16:47.965Z,0.40
2022-11-25T03:19:15.308Z,0.40
2022-11-25T03:21:42.786Z,0.50
2022-11-25T03:24:09.971Z,0.50
2022-11-25T03:26:37.414Z,0.50
2022-11-25T03:29:04.990Z,0.50
2022-11-25T03:31:34.553Z,0.50
2022-11-25T03:34:02.038Z,0.50
2022-11-25T03:36:31.391Z,0.50
2022-11-25T03:38:58.619Z,0.50
2022-11-25T03:41:26.117Z,0.40
2022-11-25T03:43:53.417Z,0.50
2022-11-25T03:46:21.039Z,0.40
2022-11-25T03:48:48.248Z,0.40
2022-11-25T03:51:15.781Z,0.40
2022-11-25T03:53:44.190Z,0.30
2022-11-25T03:56:11.740Z,0.30
2022-11-25T03:58:39.051Z,0.20
2022-11-25T04:01:07.502Z,0.20
2022-11-25T04:03:34.839Z,0.20
2022-11-25T04:06:02.283Z,0.10
2022-11-25T04:08:30.696Z,0.10
2022-11-25T04:10:59.055Z,0.10
2022-11-25T04:13:30.543Z,0.10
2022-11-25T04:15:58.408Z,0.10
2022-11-25T04:18:26.512Z,0.10
2022-11-25T04:20:56.876Z,0.10
2022-11-25T04:23:24.487Z,0.10
2022-11-25T04:25:59.119Z,0.10
2022-11-25T04:28:32.858Z,0.10
2022-11-25T04:31:00.453Z,0.10
2022-11-25T04:33:28.644Z,0.20
2022-11-25T04:35:56.251Z,0.10
2022-11-25T04:38:23.466Z,0.10
2022-11-25T04:40:50.928Z,0.10
2022-11-25T04:43:21.294Z,0.10
2022-11-25T04:48:41.680Z,0.10
2022-11-25T04:51:09.785Z,0.20
2022-11-25T04:53:37.211Z,0.20
2022-11-25T04:56:05.708Z,0.20
2022-11-25T04:58:59.542Z,0.20
2022-11-25T05:01:28.722Z,0.10
2022-11-25T05:04:04.276Z,0.20
2022-11-25T05:06:31.946Z,0.10
2022-11-25T05:09:01.355Z,0.10
2022-11-25T05:11:29.369Z,0.10
2022-11-25T05:13:56.834Z,0.10
2022-11-25T05:16:24.531Z,0.10
2022-11-25T05:18:55.412Z,0.10
2022-11-25T05:21:24.159Z,0.10
2022-11-25T05:23:55.713Z,0.00
2022-11-25T05:26:24.717Z,0.00
2022-11-25T05:28:54.422Z,0.00
2022-11-25T05:31:21.987Z,0.00
2022-11-25T05:33:50.050Z,0.10
2022-11-25T05:36:18.882Z,0.10
2022-11-25T05:38:48.797Z,0.10
2022-11-25T05:41:25.031Z,0.10
2022-11-25T05:43:55.353Z,0.10
2022-11-25T05:46:23.494Z,0.10
2022-11-25T05:48:58.567Z,0.10
2022-11-25T05:51:28.325Z,0.10
2022-11-25T05:53:57.107Z,0.10
2022-11-25T05:56:30.471Z,0.10
2022-11-25T05:59:09.619Z,0.10
2022-11-25T06:01:56.958Z,0.10
2022-11-25T06:04:24.267Z,0.10
2022-11-25T06:06:52.178Z,0.10
2022-11-25T06:09:19.795Z,0.10
2022-11-25T06:11:47.383Z,0.00
2022-11-25T06:14:17.705Z,0.00
2022-11-25T06:16:47.354Z,0.00
2022-11-25T06:19:24.954Z,0.00
2022-11-25T06:21:52.794Z,0.00
2022-11-25T06:24:20.317Z,0.00
2022-11-25T06:26:55.215Z,0.00
2022-11-25T06:29:22.618Z,0.00
2022-11-25T06:31:51.811Z,0.00
2022-11-25T06:34:51.178Z,0.00
2022-11-25T06:37:34.614Z,0.00
2022-11-25T06:40:02.027Z,0.00
2022-11-25T06:42:29.679Z,0.00
2022-11-25T06:44:57.401Z,0.00
2022-11-25T06:47:25.118Z,0.00
2022-11-25T06:49:52.393Z,0.00
2022-11-25T06:52:19.959Z,0.10
2022-11-25T06:54:47.243Z,0.10
2022-11-25T06:57:18.670Z,0.10
2022-11-25T06:59:46.546Z,0.20
2022-11-25T07:02:14.680Z,0.20
2022-11-25T07:04:42.019Z,0.20
2022-11-25T07:07:09.824Z,0.20
2022-11-25T07:09:38.111Z,0.20
2022-11-25T07:12:06.723Z,0.30
2022-11-25T07:14:34.168Z,0.30
2022-11-25T07:17:04.226Z,0.30
2022-11-25T07:19:35.896Z,0.30
2022-11-25T07:22:03.480Z,0.40
2022-11-25T07:24:30.800Z,0.40
2022-11-25T07:26:59.107Z,0.40
2022-11-25T07:32:14.011Z,0.50
2022-11-25T07:34:41.373Z,0.50
2022-11-25T07:37:08.911Z,0.50
2022-11-25T07:39:36.580Z,0.50
2022-11-25T07:42:04.564Z,0.50
2022-11-25T07:44:31.911Z,0.50
2022-11-25T07:47:18.179Z,0.50
2022-11-25T07:49:45.437Z,0.50
2022-11-25T07:52:12.955Z,0.50
2022-11-25T07:54:40.216Z,0.50
2022-11-25T07:57:07.779Z,0.50
2022-11-25T07:59:36.413Z,0.60
2022-11-25T08:02:04.650Z,0.60
2022-11-25T08:04:32.408Z,0.60
2022-11-25T08:06:59.919Z,0.60
2022-11-25T08:09:27.086Z,0.50
2022-11-25T08:11:54.862Z,0.50
2022-11-25T08:14:22.054Z,0.50
2022-11-25T08:16:49.830Z,0.40
2022-11-25T08:19:17.793Z,0.50
2022-11-25T08:21:48.189Z,0.40
2022-11-25T08:24:18.535Z,0.50
2022-11-25T08:26:46.912Z,0.50
2022-11-25T08:29:15.800Z,0.50
2022-11-25T08:31:43.987Z,0.60
2022-11-25T08:34:21.832Z,0.60
2022-11-25T08:36:51.959Z,0.50
2022-11-25T08:39:51.844Z,0.50
2022-11-25T08:42:08.673Z,0.50
2022-11-25T08:44:36.653Z,0.50
2022-11-25T08:47:04.212Z,0.50
2022-11-25T08:49:35.005Z,0.50
2022-11-25T08:52:08.718Z,0.40
2022-11-25T08:54:35.989Z,0.50
2022-11-25T08:57:03.879Z,0.40
2022-11-25T08:59:31.166Z,0.50
2022-11-25T09:01:58.738Z,0.50
2022-11-25T09:04:26.087Z,0.40
2022-11-25T09:06:53.780Z,0.40
2022-11-25T09:09:21.058Z,0.50
2022-11-25T09:11:49.002Z,0.40
2022-11-25T09:14:16.231Z,0.50
2022-11-25T09:16:43.946Z,0.50
2022-11-25T09:19:11.244Z,0.50
2022-11-25T09:21:38.876Z,0.50
2022-11-25T09:24:06.373Z,0.60
2022-11-25T09:26:36.768Z,0.60
2022-11-25T09:29:04.403Z,0.70
2022-11-25T09:31:31.999Z,0.60
2022-11-25T09:34:00.019Z,0.70
2022-11-25T09:36:27.868Z,0.70
2022-11-25T09:38:55.909Z,0.60
2022-11-25T09:41:58.580Z,0.60
2022-11-25T09:44:47.525Z,0.60
2022-11-25T09:47:33.754Z,0.60
2022-11-25T09:50:25.436Z,0.60
2022-11-25T09:53:42.069Z,0.60
2022-11-25T09:56:19.951Z,0.60
2022-11-25T09:59:05.328Z,0.60
2022-11-25T10:01:39.785Z,0.50
2022-11-25T10:04:15.828Z,0.60
2022-11-25T10:06:54.944Z,0.60
2022-11-25T10:09:26.526Z,0.60
2022-11-25T10:12:03.391Z,0.60
2022-11-25T10:14:48.466Z,0.60
2022-11-25T10:17:30.962Z,0.60
2022-11-25T10:20:36.871Z,0.60
2022-11-25T10:23:12.402Z,0.60
2022-11-25T10:25:46.065Z,0.50
2022-11-25T10:28:20.437Z,0.40
2022-11-25T10:31:15.167Z,0.40
2022-11-25T10:33:46.924Z,0.50
2022-11-25T10:36:25.302Z,0.40
2022-11-25T10:39:19.051Z,0.40
2022-11-25T10:41:55.380Z,0.40
2022-11-25T10:44:40.418Z,0.50
2022-11-25T10:47:20.361Z,0.50
2022-11-25T10:49:58.502Z,0.50
2022-11-25T10:52:29.587Z,0.40
2022-11-25T10:55:18.363Z,0.50
2022-11-25T10:57:45.865Z,0.50
2022-11-25T11:00:37.758Z,0.50
2022-11-25T11:03:20.772Z,0.50
2022-11-25T11:05:51.123Z,0.50
2022-11-25T11:08:23.539Z,0.50
2022-11-25T11:11:14.244Z,0.50
2022-11-25T11:13:42.329Z,0.60
2022-11-25T11:16:40.925Z,0.50
2022-11-25T11:19:28.250Z,0.50
2022-11-25T11:21:56.998Z,0.60
2022-11-25T11:24:38.376Z,0.50
2022-11-25T11:27:22.579Z,0.50
2022-11-25T11:30:23.900Z,0.50
2022-11-25T11:33:35.726Z,0.50
2022-11-25T11:36:21.687Z,0.40
2022-11-25T11:39:35.942Z,0.40
2022-11-25T11:42:03.629Z,0.40
2022-11-25T11:44:39.590Z,0.40
2022-11-25T11:47:28.746Z,0.50
2022-11-25T11:49:58.870Z,0.50
2022-11-25T11:53:14.437Z,0.60
2022-11-25T11:56:27.056Z,0.60
2022-11-25T11:59:17.020Z,0.60
2022-11-25T12:02:16.677Z,0.60
2022-11-25T12:05:04.658Z,0.60
2022-11-25T12:07:46.703Z,0.50
2022-11-25T12:10:14.276Z,0.50
2022-11-25T12:13:10.318Z,0.40
2022-11-25T12:16:02.405Z,0.50
2022-11-25T12:18:36.157Z,0.50
2022-11-25T12:21:05.546Z,0.50
2022-11-25T12:23:59.135Z,0.50
2022-11-25T12:26:53.580Z,0.50
2022-11-25T12:29:43.733Z,0.50
2022-11-25T12:32:48.252Z,0.50
2022-11-25T12:35:28.688Z,0.50
2022-11-25T12:38:04.845Z,0.50
2022-11-25T12:40:47.193Z,0.60
2022-11-25T12:43:34.512Z,0.60
2022-11-25T12:46:28.356Z,0.60
2022-11-25T12:48:58.263Z,0.60
2022-11-25T12:51:46.410Z,0.60
2022-11-25T12:54:43.806Z,0.60
2022-11-25T12:57:36.079Z,0.60
2022-11-25T13:04:06.806Z,0.60
2022-11-25T13:07:12.049Z,0.70
2022-11-25T13:10:00.605Z,0.60
2022-11-25T13:13:00.259Z,0.60
2022-11-25T13:15:32.301Z,0.60
2022-11-25T13:18:21.580Z,0.70
2022-11-25T13:20:51.631Z,0.70
2022-11-25T13:23:19.735Z,0.70
2022-11-25T13:25:49.332Z,0.70
2022-11-25T13:28:33.087Z,0.70
2022-11-25T13:31:25.266Z,0.70
2022-11-25T13:34:28.452Z,0.80
2022-11-25T13:36:58.039Z,0.80
2022-11-25T13:39:38.388Z,0.80
2022-11-25T13:42:27.041Z,0.80
2022-11-25T13:44:59.090Z,0.80
2022-11-25T13:47:49.235Z,0.80
2022-11-25T13:50:21.879Z,0.80
2022-11-25T13:53:03.338Z,0.80
2022-11-25T13:55:37.303Z,0.80
2022-11-25T13:58:07.471Z,0.90
2022-11-25T14:00:34.971Z,0.90
2022-11-25T14:03:20.600Z,0.90
2022-11-25T14:06:03.721Z,0.90
2022-11-25T14:08:52.055Z,0.90
2022-11-25T14:11:31.599Z,0.90
2022-11-25T14:14:04.832Z,1.00
2022-11-25T14:16:41.409Z,1.00
2022-11-25T14:19:51.136Z,1.00
2022-11-25T14:22:40.491Z,1.00
2022-11-25T14:25:16.502Z,1.00
2022-11-25T14:27:50.821Z,1.10
2022-11-25T14:30:18.844Z,1.00
2022-11-25T14:33:01.492Z,1.00
2022-11-25T14:35:45.596Z,1.00
2022-11-25T14:38:34.532Z,1.00
2022-11-25T14:41:17.403Z,0.90
2022-11-25T14:43:54.111Z,0.90
2022-11-25T14:46:23.516Z,0.90
2022-11-25T14:48:55.607Z,0.90
2022-11-25T14:51:24.649Z,0.90
2022-11-25T14:53:53.110Z,1.00
2022-11-25T14:56:27.760Z,0.90
2022-11-25T14:58:57.564Z,1.00
2022-11-25T15:01:30.251Z,1.00
2022-11-25T15:04:02.527Z,1.00
2022-11-25T15:06:37.992Z,1.00
2022-11-25T15:09:23.093Z,1.00
2022-11-25T15:12:12.671Z,1.10
2022-11-25T15:14:48.623Z,1.10
2022-11-25T15:17:35.191Z,1.10
2022-11-25T15:20:11.530Z,1.10
2022-11-25T15:22:38.939Z,1.20
2022-11-25T15:25:10.641Z,1.20
2022-11-25T15:27:49.453Z,1.20
2022-11-25T15:30:25.995Z,1.20
2022-11-25T15:32:54.350Z,1.20
2022-11-25T15:35:26.824Z,1.20
2022-11-25T15:37:54.471Z,1.30
2022-11-25T15:40:39.660Z,1.30
2022-11-25T15:43:21.072Z,1.30
2022-11-25T15:45:57.614Z,1.30
2022-11-25T15:48:33.678Z,1.30
2022-11-25T15:51:26.510Z,1.20
2022-11-25T15:54:01.969Z,1.20
2022-11-25T15:56:32.259Z,1.20
2022-11-25T15:59:01.947Z,1.20
2022-11-25T16:01:30.987Z,1.20
2022-11-25T16:04:19.387Z,1.20
2022-11-25T16:06:55.438Z,1.20
2022-11-25T16:09:25.516Z,1.20
2022-11-25T16:11:53.043Z,1.20
2022-11-25T16:14:28.917Z,1.20
2022-11-25T16:17:05.878Z,1.20
2022-11-25T16:19:40.422Z,1.20
2022-11-25T16:22:18.900Z,1.20
2022-11-25T16:24:58.922Z,1.20
2022-11-25T16:27:29.976Z,1.20
2022-11-25T16:30:19.070Z,1.20
2022-11-25T16:32:46.896Z,1.20
2022-11-25T16:35:15.049Z,1.10
2022-11-25T16:37:47.210Z,1.10
2022-11-25T16:40:17.574Z,1.20
2022-11-25T16:42:48.509Z,1.20
2022-11-25T16:45:25.240Z,1.20
2022-11-25T16:47:53.148Z,1.20
2022-11-25T16:50:21.411Z,1.20
2022-11-25T16:52:49.989Z,1.20
2022-11-25T16:55:18.651Z,1.20
2022-11-25T16:57:47.056Z,1.20
2022-11-25T17:00:17.083Z,1.10
2022-11-25T17:02:45.490Z,1.10
2022-11-25T17:05:18.252Z,1.10
2022-11-25T17:07:45.540Z,1.10
2022-11-25T17:10:13.586Z,1.10
2022-11-25T17:12:42.241Z,1.10
2022-11-25T17:15:16.274Z,1.10
2022-11-25T17:17:47.587Z,1.00
2022-11-25T17:20:24.897Z,1.00
2022-11-25T17:22:53.368Z,1.00
2022-11-25T17:25:22.741Z,1.00
2022-11-25T17:27:50.829Z,1.00
2022-11-25T17:30:27.596Z,1.00
2022-11-25T17:33:02.306Z,1.00
2022-11-25T17:35:29.977Z,1.00
2022-11-25T17:37:59.649Z,1.00
2022-11-25T17:40:27.166Z,1.00
2022-11-25T17:42:54.415Z,1.00
2022-11-25T17:45:22.249Z,1.00
2022-11-25T17:47:49.550Z,1.00
2022-11-25T17:50:23.814Z,1.00
2022-11-25T17:52:51.561Z,1.00
2022-11-25T17:55:22.003Z,1.00
2022-11-25T17:57:49.764Z,1.00
2022-11-25T18:00:20.190Z,1.00
2022-11-25T18:02:48.072Z,1.00
2022-11-25T18:05:20.555Z,1.00
2022-11-25T18:07:48.555Z,1.00
2022-11-25T18:10:19.034Z,1.00
2022-11-25T18:12:49.847Z,1.00
2022-11-25T18:15:22.723Z,1.00
2022-11-25T18:17:51.267Z,1.00
2022-11-25T18:20:24.584Z,1.00
2022-11-25T18:22:53.279Z,1.10
2022-11-25T18:25:24.727Z,1.00
2022-11-25T18:27:56.521Z,1.00
2022-11-25T18:30:27.083Z,1.00
2022-11-25T18:32:56.274Z,1.00
2022-11-25T18:35:31.075Z,1.00
2022-11-25T18:38:01.520Z,1.00
2022-11-25T18:40:30.232Z,1.00
2022-11-25T18:43:01.893Z,1.00
2022-11-25T18:45:34.286Z,1.00
2022-11-25T18:48:02.160Z,1.00
2022-11-25T18:50:29.635Z,1.00
2022-11-25T18:52:56.999Z,1.00
2022-11-25T18:55:27.788Z,1.00
2022-11-25T18:57:55.159Z,1.00
2022-11-25T19:00:33.485Z,1.00
2022-11-25T19:03:01.187Z,1.00
2022-11-25T19:05:31.729Z,1.00
2022-11-25T19:07:59.752Z,1.00
2022-11-25T19:10:35.069Z,1.00
2022-11-25T19:13:05.897Z,1.00
2022-11-25T19:15:35.175Z,1.00
2022-11-25T19:18:05.254Z,1.00
2022-11-25T19:20:33.224Z,0.90
2022-11-25T19:23:15.947Z,0.90
2022-11-25T19:25:43.560Z,1.00
2022-11-25T19:28:13.541Z,1.00
2022-11-25T19:30:41.274Z,1.00
2022-11-25T19:33:14.577Z,1.00
2022-11-25T19:35:42.280Z,1.00
2022-11-25T19:38:19.752Z,1.00
2022-11-25T19:40:49.637Z,1.00
2022-11-25T19:43:16.855Z,0.90
2022-11-25T19:45:45.052Z,1.00
2022-11-25T19:48:20.101Z,1.00
2022-11-25T19:50:52.023Z,1.00
2022-11-25T19:53:22.064Z,1.00
2022-11-25T19:55:51.303Z,1.00
2022-11-25T19:58:18.664Z,1.00
2022-11-25T20:00:47.684Z,1.00
2022-11-25T20:03:24.447Z,1.00
2022-11-25T20:05:52.810Z,1.00
2022-11-25T20:08:23.031Z,1.00
2022-11-25T20:10:51.391Z,1.00
2022-11-25T20:13:19.222Z,1.00
2022-11-25T20:15:47.131Z,1.00
2022-11-25T20:18:20.575Z,1.00
2022-11-25T20:20:56.103Z,1.00
2022-11-25T20:23:32.766Z,1.00
2022-11-25T20:26:00.503Z,1.00
2022-11-25T20:28:32.897Z,1.00
2022-11-25T20:31:00.488Z,1.00
2022-11-25T20:33:27.859Z,0.90
2022-11-25T20:36:07.370Z,1.00
2022-11-25T20:38:36.339Z,1.00
2022-11-25T20:41:05.063Z,1.00
2022-11-25T20:43:43.586Z,1.00
2022-11-25T20:46:27.062Z,1.00
2022-11-25T20:48:56.227Z,1.00
2022-11-25T20:51:24.628Z,1.00
2022-11-25T20:54:03.118Z,1.00
2022-11-25T20:56:30.730Z,1.00
2022-11-25T20:58:58.028Z,1.00
2022-11-25T21:01:25.780Z,1.00
2022-11-25T21:03:53.339Z,1.00
2022-11-25T21:06:29.837Z,1.00
2022-11-25T21:08:59.262Z,1.00
2022-11-25T21:11:28.044Z,1.00
2022-11-25T21:13:55.537Z,1.00
2022-11-25T21:16:23.198Z,1.10
2022-11-25T21:18:50.491Z,1.10
2022-11-25T21:21:31.866Z,1.10
2022-11-25T21:24:18.562Z,1.10
2022-11-25T21:26:46.092Z,1.10
2022-11-25T21:29:17.433Z,1.10
2022-11-25T21:31:45.532Z,1.10
2022-11-25T21:34:14.141Z,1.10
2022-11-25T21:36:44.471Z,1.10
2022-11-25T21:39:28.182Z,1.00
2022-11-25T21:41:57.839Z,1.00
2022-11-25T21:44:32.445Z,1.00
2022-11-25T21:47:00.060Z,1.00
2022-11-25T21:49:27.748Z,1.00
2022-11-25T21:51:55.353Z,1.00
2022-11-25T21:54:22.502Z,1.00
2022-11-25T21:56:51.957Z,1.00
2022-11-25T21:59:20.390Z,1.00
2022-11-25T22:01:48.739Z,1.00
2022-11-25T22:04:19.595Z,1.00
2022-11-25T22:06:47.996Z,1.00
2022-11-25T22:09:15.197Z,1.00
2022-11-25T22:11:46.488Z,1.00
2022-11-25T22:14:28.768Z,1.00
2022-11-25T22:16:57.435Z,1.00
2022-11-25T22:19:27.854Z,1.00
2022-11-25T22:21:55.778Z,1.00
2022-11-25T22:24:23.137Z,1.00
2022-11-25T22:26:57.503Z,1.00
2022-11-25T22:29:33.270Z,1.00
2022-11-25T22:32:01.371Z,1.00
2022-11-25T22:34:28.905Z,1.00
2022-11-25T22:36:56.344Z,1.00
2022-11-25T22:39:27.114Z,1.00
2022-11-25T22:42:07.480Z,1.00
2022-11-25T22:44:46.847Z,1.00
2022-11-25T22:47:35.834Z,1.00
2022-11-25T22:50:08.503Z,1.00
2022-11-25T22:52:36.313Z,1.00
2022-11-25T22:55:16.166Z,1.00
2022-11-25T22:57:43.939Z,1.00
2022-11-25T23:00:17.199Z,1.00
2022-11-25T23:02:45.386Z,1.00
2022-11-25T23:05:32.682Z,1.00
2022-11-25T23:08:09.325Z,1.00
2022-11-25T23:10:36.519Z,1.00
2022-11-25T23:13:04.015Z,1.00
2022-11-25T23:15:31.343Z,1.00
2022-11-25T23:18:01.222Z,1.00
2022-11-25T23:20:31.333Z,1.00
2022-11-25T23:23:05.017Z,1.00
2022-11-25T23:25:32.256Z,1.00
2022-11-25T23:27:59.684Z,1.00
2022-11-25T23:30:28.084Z,1.00
2022-11-25T23:32:55.652Z,1.00
2022-11-25T23:35:34.864Z,1.00
2022-11-25T23:38:05.558Z,1.10
2022-11-25T23:40:33.899Z,1.00
2022-11-25T23:43:03.019Z,1.10
2022-11-25T23:45:30.250Z,1.10
2022-11-25T23:47:57.967Z,1.10
2022-11-25T23:50:32.955Z,1.10
2022-11-25T23:53:03.424Z,1.10
2022-11-25T23:55:36.761Z,1.10
2022-11-25T23:58:14.619Z,1.10
